sensor_id;sensor_type;location;lat;lon;timestamp;temperature;humidity
23629;DHT22;11991;57.150;-2.134;2022-09-29T00:02:23;12.00;99.90
23629;DHT22;11991;57.150;-2.134;2022-09-29T00:04:50;12.00;99.90
23629;DHT22;11991;57.150;-2.134;2022-09-29T00:07:19;12.00;99.90
23629;DHT22;11991;57.150;-2.134;2022-09-29T00:09:46;12.00;99.90
23629;DHT22;11991;57.150;-2.134;2022-09-29T00:12:13;12.00;99.90
23629;DHT22;11991;57.150;-2.134;2022-09-29T00:14:40;12.00;99.90
23629;DHT22;11991;57.150;-2.134;2022-09-29T00:17:13;12.00;99.90
23629;DHT22;11991;57.150;-2.134;2022-09-29T00:19:41;12.00;99.90
23629;DHT22;11991;57.150;-2.134;2022-09-29T00:22:08;12.00;99.90
23629;DHT22;11991;57.150;-2.134;2022-09-29T00:24:35;12.00;99.90
23629;DHT22;11991;57.150;-2.134;2022-09-29T00:27:02;12.00;99.90
23629;DHT22;11991;57.150;-2.134;2022-09-29T00:29:30;12.00;99.90
23629;DHT22;11991;57.150;-2.134;2022-09-29T00:31:57;12.00;99.90
23629;DHT22;11991;57.150;-2.134;2022-09-29T00:34:24;12.00;99.90
23629;DHT22;11991;57.150;-2.134;2022-09-29T00:36:51;12.00;99.90
23629;DHT22;11991;57.150;-2.134;2022-09-29T00:39:18;12.00;99.90
23629;DHT22;11991;57.150;-2.134;2022-09-29T00:41:45;12.00;99.90
23629;DHT22;11991;57.150;-2.134;2022-09-29T00:46:45;12.00;99.90
23629;DHT22;11991;57.150;-2.134;2022-09-29T00:51:48;12.10;99.90
23629;DHT22;11991;57.150;-2.134;2022-09-29T00:54:17;12.10;99.90
23629;DHT22;11991;57.150;-2.134;2022-09-29T00:56:47;12.10;99.90
23629;DHT22;11991;57.150;-2.134;2022-09-29T00:59:31;12.10;99.90
23629;DHT22;11991;57.150;-2.134;2022-09-29T01:01:58;12.10;99.90
23629;DHT22;11991;57.150;-2.134;2022-09-29T01:04:26;12.10;99.90
23629;DHT22;11991;57.150;-2.134;2022-09-29T01:06:57;12.10;99.90
23629;DHT22;11991;57.150;-2.134;2022-09-29T01:09:28;12.10;99.90
23629;DHT22;11991;57.150;-2.134;2022-09-29T01:11:56;12.10;99.90
23629;DHT22;11991;57.150;-2.134;2022-09-29T01:14:28;12.10;99.90
23629;DHT22;11991;57.150;-2.134;2022-09-29T01:16:56;12.00;99.90
23629;DHT22;11991;57.150;-2.134;2022-09-29T01:31:37;12.00;99.90
23629;DHT22;11991;57.150;-2.134;2022-09-29T01:40:02;12.00;99.90
23629;DHT22;11991;57.150;-2.134;2022-09-29T01:42:36;12.00;99.90
23629;DHT22;11991;57.150;-2.134;2022-09-29T01:45:56;12.00;99.90
23629;DHT22;11991;57.150;-2.134;2022-09-29T01:48:07;12.00;99.90
23629;DHT22;11991;57.150;-2.134;2022-09-29T01:50:40;12.10;99.90
23629;DHT22;11991;57.150;-2.134;2022-09-29T01:53:15;12.00;99.90
23629;DHT22;11991;57.150;-2.134;2022-09-29T01:55:51;12.10;99.90
23629;DHT22;11991;57.150;-2.134;2022-09-29T01:58:29;12.00;99.90
23629;DHT22;11991;57.150;-2.134;2022-09-29T02:01:02;12.00;99.90
23629;DHT22;11991;57.150;-2.134;2022-09-29T02:06:41;12.00;99.90
23629;DHT22;11991;57.150;-2.134;2022-09-29T02:09:18;12.00;99.90
23629;DHT22;11991;57.150;-2.134;2022-09-29T02:11:49;12.00;99.90
23629;DHT22;11991;57.150;-2.134;2022-09-29T02:14:22;12.00;99.90
23629;DHT22;11991;57.150;-2.134;2022-09-29T02:16:59;12.00;99.90
23629;DHT22;11991;57.150;-2.134;2022-09-29T02:19:30;12.00;99.90
23629;DHT22;11991;57.150;-2.134;2022-09-29T02:22:00;12.00;99.90
23629;DHT22;11991;57.150;-2.134;2022-09-29T02:24:27;12.00;99.90
23629;DHT22;11991;57.150;-2.134;2022-09-29T02:26:55;12.00;99.90
23629;DHT22;11991;57.150;-2.134;2022-09-29T02:29:22;12.00;99.90
23629;DHT22;11991;57.150;-2.134;2022-09-29T02:31:49;12.00;99.90
23629;DHT22;11991;57.150;-2.134;2022-09-29T02:34:18;12.00;99.90
23629;DHT22;11991;57.150;-2.134;2022-09-29T02:37:02;12.00;99.90
23629;DHT22;11991;57.150;-2.134;2022-09-29T02:48:12;12.00;99.90
23629;DHT22;11991;57.150;-2.134;2022-09-29T03:02:14;12.00;99.90
23629;DHT22;11991;57.150;-2.134;2022-09-29T03:04:42;12.00;99.90
23629;DHT22;11991;57.150;-2.134;2022-09-29T03:07:09;12.00;99.90
23629;DHT22;11991;57.150;-2.134;2022-09-29T03:09:36;12.00;99.90
23629;DHT22;11991;57.150;-2.134;2022-09-29T03:12:03;12.00;99.90
23629;DHT22;11991;57.150;-2.134;2022-09-29T03:14:31;12.00;99.90
23629;DHT22;11991;57.150;-2.134;2022-09-29T03:16:58;12.10;99.90
23629;DHT22;11991;57.150;-2.134;2022-09-29T03:19:25;12.00;99.90
23629;DHT22;11991;57.150;-2.134;2022-09-29T03:21:52;12.00;99.90
23629;DHT22;11991;57.150;-2.134;2022-09-29T03:24:19;12.00;99.90
23629;DHT22;11991;57.150;-2.134;2022-09-29T03:26:47;12.00;99.90
23629;DHT22;11991;57.150;-2.134;2022-09-29T03:29:14;12.00;99.90
23629;DHT22;11991;57.150;-2.134;2022-09-29T03:31:42;12.00;99.90
23629;DHT22;11991;57.150;-2.134;2022-09-29T03:34:09;12.00;99.90
23629;DHT22;11991;57.150;-2.134;2022-09-29T03:36:36;12.00;99.90
23629;DHT22;11991;57.150;-2.134;2022-09-29T03:39:03;12.00;99.90
23629;DHT22;11991;57.150;-2.134;2022-09-29T03:41:31;12.00;99.90
23629;DHT22;11991;57.150;-2.134;2022-09-29T03:43:58;12.00;99.90
23629;DHT22;11991;57.150;-2.134;2022-09-29T03:46:25;12.00;99.90
23629;DHT22;11991;57.150;-2.134;2022-09-29T03:48:53;12.00;99.90
23629;DHT22;11991;57.150;-2.134;2022-09-29T03:51:20;12.00;99.90
23629;DHT22;11991;57.150;-2.134;2022-09-29T03:53:48;12.00;99.90
23629;DHT22;11991;57.150;-2.134;2022-09-29T03:56:15;12.00;99.90
23629;DHT22;11991;57.150;-2.134;2022-09-29T03:58:42;12.00;99.90
23629;DHT22;11991;57.150;-2.134;2022-09-29T04:01:09;12.00;99.90
23629;DHT22;11991;57.150;-2.134;2022-09-29T04:03:36;12.00;99.90
23629;DHT22;11991;57.150;-2.134;2022-09-29T04:06:04;12.00;99.90
23629;DHT22;11991;57.150;-2.134;2022-09-29T04:08:31;12.00;99.90
23629;DHT22;11991;57.150;-2.134;2022-09-29T04:11:01;12.00;99.90
23629;DHT22;11991;57.150;-2.134;2022-09-29T04:13:28;12.00;99.90
23629;DHT22;11991;57.150;-2.134;2022-09-29T04:15:59;11.90;99.90
23629;DHT22;11991;57.150;-2.134;2022-09-29T04:18:27;12.00;99.90
23629;DHT22;11991;57.150;-2.134;2022-09-29T04:20:55;11.90;99.90
23629;DHT22;11991;57.150;-2.134;2022-09-29T04:23:27;12.00;99.90
23629;DHT22;11991;57.150;-2.134;2022-09-29T04:25:57;11.90;99.90
23629;DHT22;11991;57.150;-2.134;2022-09-29T04:28:24;12.00;99.90
23629;DHT22;11991;57.150;-2.134;2022-09-29T04:30:51;12.00;99.90
23629;DHT22;11991;57.150;-2.134;2022-09-29T04:33:19;11.90;99.90
23629;DHT22;11991;57.150;-2.134;2022-09-29T04:35:46;12.00;99.90
23629;DHT22;11991;57.150;-2.134;2022-09-29T04:38:13;11.90;99.90
23629;DHT22;11991;57.150;-2.134;2022-09-29T04:40:40;12.00;99.90
23629;DHT22;11991;57.150;-2.134;2022-09-29T04:43:07;12.00;99.90
23629;DHT22;11991;57.150;-2.134;2022-09-29T04:45:34;11.90;99.90
23629;DHT22;11991;57.150;-2.134;2022-09-29T04:48:02;12.00;99.90
23629;DHT22;11991;57.150;-2.134;2022-09-29T04:50:29;11.90;99.90
23629;DHT22;11991;57.150;-2.134;2022-09-29T04:52:56;11.90;99.90
23629;DHT22;11991;57.150;-2.134;2022-09-29T04:55:24;12.00;99.90
23629;DHT22;11991;57.150;-2.134;2022-09-29T04:57:51;11.90;99.90
23629;DHT22;11991;57.150;-2.134;2022-09-29T05:00:18;11.90;99.90
23629;DHT22;11991;57.150;-2.134;2022-09-29T05:02:47;11.90;99.90
23629;DHT22;11991;57.150;-2.134;2022-09-29T05:05:16;11.90;99.90
23629;DHT22;11991;57.150;-2.134;2022-09-29T05:07:43;11.90;99.90
23629;DHT22;11991;57.150;-2.134;2022-09-29T05:10:11;11.90;99.90
23629;DHT22;11991;57.150;-2.134;2022-09-29T05:12:38;11.90;99.90
23629;DHT22;11991;57.150;-2.134;2022-09-29T05:15:06;11.90;99.90
23629;DHT22;11991;57.150;-2.134;2022-09-29T05:17:33;11.90;99.90
23629;DHT22;11991;57.150;-2.134;2022-09-29T05:20:01;11.90;99.90
23629;DHT22;11991;57.150;-2.134;2022-09-29T05:22:28;11.90;99.90
23629;DHT22;11991;57.150;-2.134;2022-09-29T05:24:55;11.90;99.90
23629;DHT22;11991;57.150;-2.134;2022-09-29T05:27:22;11.90;99.90
23629;DHT22;11991;57.150;-2.134;2022-09-29T05:29:49;11.90;99.90
23629;DHT22;11991;57.150;-2.134;2022-09-29T05:32:17;11.90;99.90
23629;DHT22;11991;57.150;-2.134;2022-09-29T05:34:44;11.90;99.90
23629;DHT22;11991;57.150;-2.134;2022-09-29T05:37:11;11.90;99.90
23629;DHT22;11991;57.150;-2.134;2022-09-29T05:39:38;11.90;99.90
23629;DHT22;11991;57.150;-2.134;2022-09-29T05:42:10;11.90;99.90
23629;DHT22;11991;57.150;-2.134;2022-09-29T05:44:37;11.90;99.90
23629;DHT22;11991;57.150;-2.134;2022-09-29T05:47:04;11.90;99.90
23629;DHT22;11991;57.150;-2.134;2022-09-29T05:49:32;11.90;99.90
23629;DHT22;11991;57.150;-2.134;2022-09-29T05:51:59;11.90;99.90
23629;DHT22;11991;57.150;-2.134;2022-09-29T05:54:26;11.90;99.90
23629;DHT22;11991;57.150;-2.134;2022-09-29T05:56:54;11.90;99.90
23629;DHT22;11991;57.150;-2.134;2022-09-29T05:59:22;11.90;99.90
23629;DHT22;11991;57.150;-2.134;2022-09-29T06:01:49;11.80;99.90
23629;DHT22;11991;57.150;-2.134;2022-09-29T06:04:16;11.90;99.90
23629;DHT22;11991;57.150;-2.134;2022-09-29T06:06:43;11.80;99.90
23629;DHT22;11991;57.150;-2.134;2022-09-29T06:09:11;11.80;99.90
23629;DHT22;11991;57.150;-2.134;2022-09-29T06:11:38;11.70;99.90
23629;DHT22;11991;57.150;-2.134;2022-09-29T06:14:05;11.80;99.90
23629;DHT22;11991;57.150;-2.134;2022-09-29T06:16:32;11.70;99.90
23629;DHT22;11991;57.150;-2.134;2022-09-29T06:19:00;11.70;99.90
23629;DHT22;11991;57.150;-2.134;2022-09-29T06:21:29;11.70;99.90
23629;DHT22;11991;57.150;-2.134;2022-09-29T06:23:57;11.70;99.90
23629;DHT22;11991;57.150;-2.134;2022-09-29T06:26:25;11.70;99.90
23629;DHT22;11991;57.150;-2.134;2022-09-29T06:28:53;11.60;99.90
23629;DHT22;11991;57.150;-2.134;2022-09-29T06:31:23;11.60;99.90
23629;DHT22;11991;57.150;-2.134;2022-09-29T06:33:51;11.60;99.90
23629;DHT22;11991;57.150;-2.134;2022-09-29T06:36:34;11.60;99.90
23629;DHT22;11991;57.150;-2.134;2022-09-29T06:39:20;11.50;99.90
23629;DHT22;11991;57.150;-2.134;2022-09-29T06:41:48;11.50;99.90
23629;DHT22;11991;57.150;-2.134;2022-09-29T06:44:23;11.50;99.90
23629;DHT22;11991;57.150;-2.134;2022-09-29T06:46:50;11.50;99.90
23629;DHT22;11991;57.150;-2.134;2022-09-29T06:49:18;11.50;99.90
23629;DHT22;11991;57.150;-2.134;2022-09-29T06:51:46;11.50;99.90
23629;DHT22;11991;57.150;-2.134;2022-09-29T06:54:16;11.50;99.90
23629;DHT22;11991;57.150;-2.134;2022-09-29T06:56:48;11.50;99.90
23629;DHT22;11991;57.150;-2.134;2022-09-29T06:59:16;11.50;99.90
23629;DHT22;11991;57.150;-2.134;2022-09-29T07:01:43;11.50;99.90
23629;DHT22;11991;57.150;-2.134;2022-09-29T07:04:15;11.50;99.90
23629;DHT22;11991;57.150;-2.134;2022-09-29T07:06:44;11.50;99.90
23629;DHT22;11991;57.150;-2.134;2022-09-29T07:09:12;11.60;99.90
23629;DHT22;11991;57.150;-2.134;2022-09-29T07:11:44;11.60;99.90
23629;DHT22;11991;57.150;-2.134;2022-09-29T07:14:19;11.60;99.90
23629;DHT22;11991;57.150;-2.134;2022-09-29T07:16:49;11.70;99.90
23629;DHT22;11991;57.150;-2.134;2022-09-29T07:19:17;11.70;99.90
23629;DHT22;11991;57.150;-2.134;2022-09-29T07:21:46;11.70;99.90
23629;DHT22;11991;57.150;-2.134;2022-09-29T07:24:13;11.70;99.90
23629;DHT22;11991;57.150;-2.134;2022-09-29T07:26:40;11.70;99.90
23629;DHT22;11991;57.150;-2.134;2022-09-29T07:29:08;11.70;99.90
23629;DHT22;11991;57.150;-2.134;2022-09-29T07:31:41;11.70;99.90
23629;DHT22;11991;57.150;-2.134;2022-09-29T07:34:19;11.80;99.90
23629;DHT22;11991;57.150;-2.134;2022-09-29T07:36:47;11.70;99.90
23629;DHT22;11991;57.150;-2.134;2022-09-29T07:39:14;11.80;99.90
23629;DHT22;11991;57.150;-2.134;2022-09-29T07:41:41;11.80;99.90
23629;DHT22;11991;57.150;-2.134;2022-09-29T07:44:09;11.80;99.90
23629;DHT22;11991;57.150;-2.134;2022-09-29T07:46:36;11.90;99.90
23629;DHT22;11991;57.150;-2.134;2022-09-29T07:49:03;11.80;99.90
23629;DHT22;11991;57.150;-2.134;2022-09-29T07:51:30;11.90;99.90
23629;DHT22;11991;57.150;-2.134;2022-09-29T07:54:03;11.90;99.90
23629;DHT22;11991;57.150;-2.134;2022-09-29T07:56:31;11.90;99.90
23629;DHT22;11991;57.150;-2.134;2022-09-29T07:58:58;11.90;99.90
23629;DHT22;11991;57.150;-2.134;2022-09-29T08:01:28;11.90;99.90
23629;DHT22;11991;57.150;-2.134;2022-09-29T08:03:56;12.00;99.90
23629;DHT22;11991;57.150;-2.134;2022-09-29T08:06:25;12.00;99.90
23629;DHT22;11991;57.150;-2.134;2022-09-29T08:08:53;12.00;99.90
23629;DHT22;11991;57.150;-2.134;2022-09-29T08:11:32;12.00;99.90
23629;DHT22;11991;57.150;-2.134;2022-09-29T08:14:00;12.00;99.90
23629;DHT22;11991;57.150;-2.134;2022-09-29T08:16:28;12.00;99.90
23629;DHT22;11991;57.150;-2.134;2022-09-29T08:18:56;12.00;99.90
23629;DHT22;11991;57.150;-2.134;2022-09-29T08:21:23;12.00;99.90
23629;DHT22;11991;57.150;-2.134;2022-09-29T08:23:51;12.00;99.90
23629;DHT22;11991;57.150;-2.134;2022-09-29T08:26:20;12.10;99.90
23629;DHT22;11991;57.150;-2.134;2022-09-29T08:29:06;12.20;99.90
23629;DHT22;11991;57.150;-2.134;2022-09-29T08:31:35;12.20;99.90
23629;DHT22;11991;57.150;-2.134;2022-09-29T08:34:05;12.20;99.90
23629;DHT22;11991;57.150;-2.134;2022-09-29T08:36:32;12.20;99.90
23629;DHT22;11991;57.150;-2.134;2022-09-29T08:39:00;12.20;99.90
23629;DHT22;11991;57.150;-2.134;2022-09-29T08:47:19;12.20;99.90
23629;DHT22;11991;57.150;-2.134;2022-09-29T08:50:26;12.20;99.90
23629;DHT22;11991;57.150;-2.134;2022-09-29T08:52:59;12.30;99.90
23629;DHT22;11991;57.150;-2.134;2022-09-29T08:58:13;12.40;99.90
23629;DHT22;11991;57.150;-2.134;2022-09-29T09:20:03;12.60;99.90
23629;DHT22;11991;57.150;-2.134;2022-09-29T09:22:46;12.70;99.90
23629;DHT22;11991;57.150;-2.134;2022-09-29T09:25:29;12.70;99.90
23629;DHT22;11991;57.150;-2.134;2022-09-29T09:28:16;12.80;99.90
23629;DHT22;11991;57.150;-2.134;2022-09-29T09:31:10;12.80;99.90
23629;DHT22;11991;57.150;-2.134;2022-09-29T09:39:18;12.80;99.90
23629;DHT22;11991;57.150;-2.134;2022-09-29T09:41:49;12.90;99.90
23629;DHT22;11991;57.150;-2.134;2022-09-29T09:44:23;12.90;99.90
23629;DHT22;11991;57.150;-2.134;2022-09-29T09:46:55;12.90;99.90
23629;DHT22;11991;57.150;-2.134;2022-09-29T09:49:34;13.00;99.90
23629;DHT22;11991;57.150;-2.134;2022-09-29T09:52:26;13.10;99.90
23629;DHT22;11991;57.150;-2.134;2022-09-29T09:55:00;13.20;99.90
23629;DHT22;11991;57.150;-2.134;2022-09-29T10:00:27;13.30;99.90
23629;DHT22;11991;57.150;-2.134;2022-09-29T10:03:01;13.30;99.90
23629;DHT22;11991;57.150;-2.134;2022-09-29T10:05:37;13.40;99.90
23629;DHT22;11991;57.150;-2.134;2022-09-29T10:08:08;13.50;99.90
23629;DHT22;11991;57.150;-2.134;2022-09-29T10:10:40;13.50;99.90
23629;DHT22;11991;57.150;-2.134;2022-09-29T10:13:25;13.60;99.90
23629;DHT22;11991;57.150;-2.134;2022-09-29T10:18:39;13.60;99.90
23629;DHT22;11991;57.150;-2.134;2022-09-29T10:21:35;13.70;99.90
23629;DHT22;11991;57.150;-2.134;2022-09-29T10:24:03;13.70;99.90
23629;DHT22;11991;57.150;-2.134;2022-09-29T10:26:41;13.60;99.90
23629;DHT22;11991;57.150;-2.134;2022-09-29T10:34:28;13.60;99.90
23629;DHT22;11991;57.150;-2.134;2022-09-29T10:36:59;13.60;99.90
23629;DHT22;11991;57.150;-2.134;2022-09-29T10:39:44;13.60;99.90
23629;DHT22;11991;57.150;-2.134;2022-09-29T10:44:54;13.70;99.90
23629;DHT22;11991;57.150;-2.134;2022-09-29T10:47:26;13.70;99.90
23629;DHT22;11991;57.150;-2.134;2022-09-29T10:53:02;13.80;99.90
23629;DHT22;11991;57.150;-2.134;2022-09-29T10:55:33;13.80;99.90
23629;DHT22;11991;57.150;-2.134;2022-09-29T10:58:15;13.80;99.90
23629;DHT22;11991;57.150;-2.134;2022-09-29T11:04:03;13.90;99.90
23629;DHT22;11991;57.150;-2.134;2022-09-29T11:06:39;13.90;99.90
23629;DHT22;11991;57.150;-2.134;2022-09-29T11:17:21;14.30;99.90
23629;DHT22;11991;57.150;-2.134;2022-09-29T11:19:54;14.30;99.90
23629;DHT22;11991;57.150;-2.134;2022-09-29T11:30:25;14.40;99.90
23629;DHT22;11991;57.150;-2.134;2022-09-29T11:33:20;14.30;99.90
23629;DHT22;11991;57.150;-2.134;2022-09-29T11:38:58;14.30;99.90
23629;DHT22;11991;57.150;-2.134;2022-09-29T11:55:29;14.50;99.90
23629;DHT22;11991;57.150;-2.134;2022-09-29T12:15:02;14.40;99.90
23629;DHT22;11991;57.150;-2.134;2022-09-29T12:17:35;14.50;99.90
23629;DHT22;11991;57.150;-2.134;2022-09-29T12:20:30;14.60;99.90
23629;DHT22;11991;57.150;-2.134;2022-09-29T12:23:03;14.70;99.90
23629;DHT22;11991;57.150;-2.134;2022-09-29T12:25:36;14.90;99.90
23629;DHT22;11991;57.150;-2.134;2022-09-29T12:28:13;15.00;99.90
23629;DHT22;11991;57.150;-2.134;2022-09-29T12:35:11;15.10;99.90
23629;DHT22;11991;57.150;-2.134;2022-09-29T12:37:48;15.00;99.90
23629;DHT22;11991;57.150;-2.134;2022-09-29T12:40:19;14.90;99.90
23629;DHT22;11991;57.150;-2.134;2022-09-29T12:45:42;14.80;99.90
23629;DHT22;11991;57.150;-2.134;2022-09-29T12:50:53;14.70;99.90
23629;DHT22;11991;57.150;-2.134;2022-09-29T12:56:23;14.80;99.90
23629;DHT22;11991;57.150;-2.134;2022-09-29T13:01:20;14.90;99.90
23629;DHT22;11991;57.150;-2.134;2022-09-29T13:04:18;15.00;99.90
23629;DHT22;11991;57.150;-2.134;2022-09-29T13:28:55;15.60;99.90
23629;DHT22;11991;57.150;-2.134;2022-09-29T13:31:27;15.60;99.90
23629;DHT22;11991;57.150;-2.134;2022-09-29T13:34:02;15.50;99.90
23629;DHT22;11991;57.150;-2.134;2022-09-29T13:36:38;15.50;99.90
23629;DHT22;11991;57.150;-2.134;2022-09-29T13:39:17;15.50;99.90
23629;DHT22;11991;57.150;-2.134;2022-09-29T13:41:46;15.50;99.90
23629;DHT22;11991;57.150;-2.134;2022-09-29T13:44:20;15.50;99.90
23629;DHT22;11991;57.150;-2.134;2022-09-29T13:46:50;15.50;99.90
23629;DHT22;11991;57.150;-2.134;2022-09-29T13:54:38;15.40;99.90
23629;DHT22;11991;57.150;-2.134;2022-09-29T13:57:20;15.40;99.90
23629;DHT22;11991;57.150;-2.134;2022-09-29T14:04:58;15.30;99.90
23629;DHT22;11991;57.150;-2.134;2022-09-29T14:07:43;15.30;99.90
23629;DHT22;11991;57.150;-2.134;2022-09-29T14:15:41;15.30;99.90
23629;DHT22;11991;57.150;-2.134;2022-09-29T14:18:30;15.30;99.90
23629;DHT22;11991;57.150;-2.134;2022-09-29T14:21:07;15.30;99.90
23629;DHT22;11991;57.150;-2.134;2022-09-29T14:26:41;15.30;99.90
23629;DHT22;11991;57.150;-2.134;2022-09-29T14:29:19;15.30;99.90
23629;DHT22;11991;57.150;-2.134;2022-09-29T14:31:52;15.30;99.90
23629;DHT22;11991;57.150;-2.134;2022-09-29T14:34:22;15.40;99.90
23629;DHT22;11991;57.150;-2.134;2022-09-29T14:36:53;15.40;99.90
23629;DHT22;11991;57.150;-2.134;2022-09-29T14:39:23;15.40;99.90
23629;DHT22;11991;57.150;-2.134;2022-09-29T14:41:53;15.40;99.90
23629;DHT22;11991;57.150;-2.134;2022-09-29T14:44:26;15.40;99.90
23629;DHT22;11991;57.150;-2.134;2022-09-29T14:47:30;15.40;99.90
23629;DHT22;11991;57.150;-2.134;2022-09-29T14:50:28;15.40;99.90
23629;DHT22;11991;57.150;-2.134;2022-09-29T14:53:42;15.40;99.90
23629;DHT22;11991;57.150;-2.134;2022-09-29T14:56:22;15.30;99.90
23629;DHT22;11991;57.150;-2.134;2022-09-29T15:04:44;15.30;99.90
23629;DHT22;11991;57.150;-2.134;2022-09-29T15:07:18;15.30;99.90
23629;DHT22;11991;57.150;-2.134;2022-09-29T15:09:54;15.20;99.90
23629;DHT22;11991;57.150;-2.134;2022-09-29T15:12:28;15.30;99.90
23629;DHT22;11991;57.150;-2.134;2022-09-29T15:14:57;15.20;99.90
23629;DHT22;11991;57.150;-2.134;2022-09-29T15:25:46;15.20;99.90
23629;DHT22;11991;57.150;-2.134;2022-09-29T15:28:22;15.20;99.90
23629;DHT22;11991;57.150;-2.134;2022-09-29T15:30:52;15.20;99.90
23629;DHT22;11991;57.150;-2.134;2022-09-29T15:33:26;15.20;99.90
23629;DHT22;11991;57.150;-2.134;2022-09-29T15:36:00;15.10;99.90
23629;DHT22;11991;57.150;-2.134;2022-09-29T15:41:02;15.10;99.90
23629;DHT22;11991;57.150;-2.134;2022-09-29T15:43:50;15.10;99.90
23629;DHT22;11991;57.150;-2.134;2022-09-29T15:46:38;15.00;99.90
23629;DHT22;11991;57.150;-2.134;2022-09-29T15:49:19;15.00;99.90
23629;DHT22;11991;57.150;-2.134;2022-09-29T15:52:05;15.10;99.90
23629;DHT22;11991;57.150;-2.134;2022-09-29T15:54:39;15.10;99.90
23629;DHT22;11991;57.150;-2.134;2022-09-29T16:03:11;14.90;99.90
23629;DHT22;11991;57.150;-2.134;2022-09-29T16:05:44;14.90;99.90
23629;DHT22;11991;57.150;-2.134;2022-09-29T16:08:20;14.90;99.90
23629;DHT22;11991;57.150;-2.134;2022-09-29T16:10:58;14.80;99.90
23629;DHT22;11991;57.150;-2.134;2022-09-29T16:13:28;14.80;99.90
23629;DHT22;11991;57.150;-2.134;2022-09-29T16:16:03;14.80;99.90
23629;DHT22;11991;57.150;-2.134;2022-09-29T16:18:49;14.80;99.90
23629;DHT22;11991;57.150;-2.134;2022-09-29T16:21:22;14.80;99.90
23629;DHT22;11991;57.150;-2.134;2022-09-29T16:24:16;14.70;99.90
23629;DHT22;11991;57.150;-2.134;2022-09-29T16:26:48;14.70;99.90
23629;DHT22;11991;57.150;-2.134;2022-09-29T16:29:32;14.70;99.90
23629;DHT22;11991;57.150;-2.134;2022-09-29T16:38:24;14.60;99.90
23629;DHT22;11991;57.150;-2.134;2022-09-29T16:40:53;14.60;99.90
23629;DHT22;11991;57.150;-2.134;2022-09-29T16:43:28;14.60;99.90
23629;DHT22;11991;57.150;-2.134;2022-09-29T16:46:00;14.60;99.90
23629;DHT22;11991;57.150;-2.134;2022-09-29T16:48:30;14.50;99.90
23629;DHT22;11991;57.150;-2.134;2022-09-29T16:50:59;14.50;99.90
23629;DHT22;11991;57.150;-2.134;2022-09-29T16:53:34;14.40;99.90
23629;DHT22;11991;57.150;-2.134;2022-09-29T16:56:37;14.40;99.90
23629;DHT22;11991;57.150;-2.134;2022-09-29T17:01:31;14.30;99.90
23629;DHT22;11991;57.150;-2.134;2022-09-29T17:03:58;14.20;99.90
23629;DHT22;11991;57.150;-2.134;2022-09-29T17:06:26;14.20;99.90
23629;DHT22;11991;57.150;-2.134;2022-09-29T17:08:53;14.20;99.90
23629;DHT22;11991;57.150;-2.134;2022-09-29T17:11:20;14.10;99.90
23629;DHT22;11991;57.150;-2.134;2022-09-29T17:13:47;14.10;99.90
23629;DHT22;11991;57.150;-2.134;2022-09-29T17:16:15;14.10;99.90
23629;DHT22;11991;57.150;-2.134;2022-09-29T17:18:49;14.10;99.90
23629;DHT22;11991;57.150;-2.134;2022-09-29T17:21:18;14.10;99.90
23629;DHT22;11991;57.150;-2.134;2022-09-29T17:23:45;14.00;99.90
23629;DHT22;11991;57.150;-2.134;2022-09-29T17:26:19;14.00;99.90
23629;DHT22;11991;57.150;-2.134;2022-09-29T17:29:05;14.00;99.90
23629;DHT22;11991;57.150;-2.134;2022-09-29T17:31:32;14.00;99.90
23629;DHT22;11991;57.150;-2.134;2022-09-29T17:34:00;14.00;99.90
23629;DHT22;11991;57.150;-2.134;2022-09-29T17:36:28;14.00;99.90
23629;DHT22;11991;57.150;-2.134;2022-09-29T17:38:56;14.00;99.90
23629;DHT22;11991;57.150;-2.134;2022-09-29T17:41:23;14.00;99.90
23629;DHT22;11991;57.150;-2.134;2022-09-29T17:43:50;14.00;99.90
23629;DHT22;11991;57.150;-2.134;2022-09-29T17:46:17;14.00;99.90
23629;DHT22;11991;57.150;-2.134;2022-09-29T17:48:45;14.00;99.90
23629;DHT22;11991;57.150;-2.134;2022-09-29T17:51:14;14.00;99.90
23629;DHT22;11991;57.150;-2.134;2022-09-29T17:53:44;14.00;99.90
23629;DHT22;11991;57.150;-2.134;2022-09-29T17:56:19;14.00;99.90
23629;DHT22;11991;57.150;-2.134;2022-09-29T17:58:48;14.00;99.90
23629;DHT22;11991;57.150;-2.134;2022-09-29T18:01:18;14.00;99.90
23629;DHT22;11991;57.150;-2.134;2022-09-29T18:03:47;13.90;99.90
23629;DHT22;11991;57.150;-2.134;2022-09-29T18:06:20;13.90;99.90
23629;DHT22;11991;57.150;-2.134;2022-09-29T18:08:48;13.90;99.90
23629;DHT22;11991;57.150;-2.134;2022-09-29T18:11:24;13.90;99.90
23629;DHT22;11991;57.150;-2.134;2022-09-29T18:13:52;13.90;99.90
23629;DHT22;11991;57.150;-2.134;2022-09-29T18:16:21;13.90;99.90
23629;DHT22;11991;57.150;-2.134;2022-09-29T18:18:49;13.90;99.90
23629;DHT22;11991;57.150;-2.134;2022-09-29T18:21:23;13.80;99.90
23629;DHT22;11991;57.150;-2.134;2022-09-29T18:23:50;13.80;99.90
23629;DHT22;11991;57.150;-2.134;2022-09-29T18:26:17;13.80;99.90
23629;DHT22;11991;57.150;-2.134;2022-09-29T18:28:45;13.70;99.90
23629;DHT22;11991;57.150;-2.134;2022-09-29T18:31:27;13.70;99.90
23629;DHT22;11991;57.150;-2.134;2022-09-29T18:33:54;13.70;99.90
23629;DHT22;11991;57.150;-2.134;2022-09-29T18:36:22;13.70;99.90
23629;DHT22;11991;57.150;-2.134;2022-09-29T18:38:51;13.70;99.90
23629;DHT22;11991;57.150;-2.134;2022-09-29T18:41:19;13.70;99.90
23629;DHT22;11991;57.150;-2.134;2022-09-29T18:43:47;13.70;99.90
23629;DHT22;11991;57.150;-2.134;2022-09-29T18:46:16;13.60;99.90
23629;DHT22;11991;57.150;-2.134;2022-09-29T18:48:47;13.60;99.90
23629;DHT22;11991;57.150;-2.134;2022-09-29T18:51:14;13.60;99.90
23629;DHT22;11991;57.150;-2.134;2022-09-29T18:53:47;13.50;99.90
23629;DHT22;11991;57.150;-2.134;2022-09-29T18:56:15;13.50;99.90
23629;DHT22;11991;57.150;-2.134;2022-09-29T18:58:45;13.50;99.90
23629;DHT22;11991;57.150;-2.134;2022-09-29T19:01:15;13.40;99.90
23629;DHT22;11991;57.150;-2.134;2022-09-29T19:03:44;13.40;99.90
23629;DHT22;11991;57.150;-2.134;2022-09-29T19:06:14;13.40;99.90
23629;DHT22;11991;57.150;-2.134;2022-09-29T19:08:41;13.40;99.90
23629;DHT22;11991;57.150;-2.134;2022-09-29T19:11:21;13.40;99.90
23629;DHT22;11991;57.150;-2.134;2022-09-29T19:13:50;13.40;99.90
23629;DHT22;11991;57.150;-2.134;2022-09-29T19:16:18;13.50;99.90
23629;DHT22;11991;57.150;-2.134;2022-09-29T19:18:47;13.50;99.90
23629;DHT22;11991;57.150;-2.134;2022-09-29T19:21:15;13.50;99.90
23629;DHT22;11991;57.150;-2.134;2022-09-29T19:23:44;13.50;99.90
23629;DHT22;11991;57.150;-2.134;2022-09-29T19:26:17;13.50;99.90
23629;DHT22;11991;57.150;-2.134;2022-09-29T19:28:45;13.50;99.90
23629;DHT22;11991;57.150;-2.134;2022-09-29T19:31:17;13.50;99.90
23629;DHT22;11991;57.150;-2.134;2022-09-29T19:33:48;13.40;99.90
23629;DHT22;11991;57.150;-2.134;2022-09-29T19:36:19;13.40;99.90
23629;DHT22;11991;57.150;-2.134;2022-09-29T19:38:47;13.40;99.90
23629;DHT22;11991;57.150;-2.134;2022-09-29T19:41:17;13.30;99.90